Time;durP1;ratioP1;P1;durP2;ratioP2;P2;SDS_P1;SDS_P2;PMS_P1;PMS_P2;Temp;Humidity;BMP_temperature;BMP_pressure;BME280_temperature;BME280_humidity;BME280_pressure;Samples;Min_cycle;Max_cycle;Signal;HPM_P1;HPM_P2
2023/09/03 00:01:38;;;;;;;;;;;;;;;20.52;100.00;100079.09;4992522;28;1939;-60
2023/09/03 00:04:05;;;;;;;;;;;;;;;20.55;100.00;100076.13;4992593;28;950;-60
2023/09/03 00:06:31;;;;;;;;;;;;;;;20.58;100.00;100078.03;4974916;28;1190;-60
2023/09/03 00:08:58;;;;;;;;;;;;;;;20.59;100.00;100074.00;4992357;28;809;-61
2023/09/03 00:11:25;;;;;;;;;;;;;;;20.61;100.00;100067.88;4992328;28;841;-60
2023/09/03 00:13:54;;;;;;;;;;;;;;;20.60;100.00;100067.13;4992311;28;841;-60
2023/09/03 00:16:21;;;;;;;;;;;;;;;20.60;100.00;100069.16;4992320;28;888;-60
2023/09/03 00:18:47;;;;;;;;;;;;;;;20.60;100.00;100069.91;4992584;28;868;-60
2023/09/03 00:21:14;;;;;;;;;;;;;;;20.64;100.00;100061.34;4992197;28;1882;-60
2023/09/03 00:23:42;;;;;;;;;;;;;;;20.68;100.00;100062.00;4994419;28;899;-60
2023/09/03 00:26:18;;;;;;;;;;;;;;;20.70;100.00;100062.31;4995819;28;1131;-60
2023/09/03 00:28:45;;;;;;;;;;;;;;;20.76;100.00;100063.25;4996043;28;924;-61
2023/09/03 00:31:12;;;;;;;;;;;;;;;20.74;100.00;100065.75;4996090;28;832;-60
2023/09/03 00:33:40;;;;;;;;;;;;;;;20.72;100.00;100067.47;4995968;28;1233;-60
2023/09/03 00:36:10;;;;;;;;;;;;;;;20.70;100.00;100064.34;4996072;28;828;-60
2023/09/03 00:38:38;;;;;;;;;;;;;;;20.67;100.00;100065.25;4996404;28;876;-60
2023/09/03 00:41:05;;;;;;;;;;;;;;;20.62;100.00;100063.84;4996073;28;1910;-61
2023/09/03 00:43:33;;;;;;;;;;;;;;;20.69;100.00;100066.34;4995844;28;873;-60
2023/09/03 00:46:03;;;;;;;;;;;;;;;20.77;100.00;100061.22;4995832;28;960;-60
2023/09/03 00:48:30;;;;;;;;;;;;;;;20.82;100.00;100063.38;4995874;28;833;-60
2023/09/03 00:51:01;;;;;;;;;;;;;;;20.76;100.00;100059.63;4995812;28;860;-60
2023/09/03 00:53:31;;;;;;;;;;;;;;;20.72;100.00;100062.63;4995903;28;907;-60
2023/09/03 01:24:48;;;;;;;;;;;;;;;20.81;100.00;100064.66;5887852;23;1588;-64
2023/09/03 01:27:16;;;;;;;;;;;;;;;20.82;100.00;100069.00;5014974;28;895;-65
2023/09/03 01:29:44;;;;;;;;;;;;;;;20.79;100.00;100069.97;5014723;28;1314;-65
2023/09/03 01:32:11;;;;;;;;;;;;;;;20.80;100.00;100068.69;5014827;28;1251;-65
2023/09/03 01:34:39;;;;;;;;;;;;;;;20.78;100.00;100062.75;5013948;28;812;-65
2023/09/03 01:37:06;;;;;;;;;;;;;;;20.78;100.00;100062.75;5014975;28;823;-65
2023/09/03 01:39:33;;;;;;;;;;;;;;;20.73;100.00;100066.97;5014839;28;835;-65
2023/09/03 01:42:00;;;;;;;;;;;;;;;20.70;100.00;100059.50;5014514;28;1906;-65
2023/09/03 01:44:27;;;;;;;;;;;;;;;20.61;100.00;100056.66;5014555;28;862;-66
2023/09/03 01:47:03;;;;;;;;;;;;;;;20.59;100.00;100062.75;5014479;28;1012;-65
2023/09/03 01:49:35;;;;;;;;;;;;;;;20.51;100.00;100057.88;5014276;28;848;-66
2023/09/03 01:52:06;;;;;;;;;;;;;;;20.50;100.00;100054.28;5014260;28;923;-65
2023/09/03 01:54:37;;;;;;;;;;;;;;;20.47;100.00;100057.25;5014111;28;883;-65
2023/09/03 01:57:25;;;;;;;;;;;;;;;20.43;100.00;100054.56;5014188;28;915;-65
2023/09/03 01:59:55;;;;;;;;;;;;;;;20.38;100.00;100049.59;5014203;28;899;-64
2023/09/03 02:02:23;;;;;;;;;;;;;;;20.35;100.00;100048.47;5013938;28;1875;-65
2023/09/03 02:04:51;;;;;;;;;;;;;;;20.34;100.00;100051.75;5014069;28;852;-64
2023/09/03 02:07:17;;;;;;;;;;;;;;;20.27;100.00;100052.84;5013933;28;944;-65
2023/09/03 02:09:45;;;;;;;;;;;;;;;20.17;100.00;100057.63;5014057;28;927;-67
2023/09/03 02:12:12;;;;;;;;;;;;;;;20.11;100.00;100050.28;5014205;28;892;-65
2023/09/03 02:14:39;;;;;;;;;;;;;;;20.06;100.00;100053.69;5013854;28;899;-66
2023/09/03 02:17:06;;;;;;;;;;;;;;;20.01;100.00;100040.25;5013832;28;860;-65
2023/09/03 02:19:33;;;;;;;;;;;;;;;19.97;100.00;100052.41;5013758;28;915;-66
2023/09/03 02:22:00;;;;;;;;;;;;;;;20.00;100.00;100050.72;5013886;28;1878;-64
2023/09/03 02:24:28;;;;;;;;;;;;;;;20.05;100.00;100052.13;5013650;28;918;-64
2023/09/03 02:26:55;;;;;;;;;;;;;;;20.04;100.00;100056.97;4974626;28;1225;-65
2023/09/03 02:29:22;;;;;;;;;;;;;;;20.04;100.00;100053.38;4974533;28;1063;-65
2023/09/03 02:31:49;;;;;;;;;;;;;;;20.03;100.00;100054.59;4974633;28;872;-66
2023/09/03 02:34:16;;;;;;;;;;;;;;;19.96;100.00;100056.44;4974583;28;857;-66
2023/09/03 02:36:43;;;;;;;;;;;;;;;19.89;100.00;100059.56;4974482;28;840;-64
2023/09/03 02:39:10;;;;;;;;;;;;;;;19.84;100.00;100057.31;4974275;28;922;-65
2023/09/03 02:41:36;;;;;;;;;;;;;;;19.84;100.00;100059.34;4974289;28;1910;-64
2023/09/03 02:44:03;;;;;;;;;;;;;;;19.77;100.00;100061.19;4974242;28;864;-65
2023/09/03 02:46:31;;;;;;;;;;;;;;;19.72;100.00;100058.22;4974199;28;828;-65
2023/09/03 02:48:58;;;;;;;;;;;;;;;19.69;100.00;100050.69;4974394;28;888;-64
2023/09/03 02:51:24;;;;;;;;;;;;;;;19.67;100.00;100055.97;4974110;28;908;-65
2023/09/03 02:53:53;;;;;;;;;;;;;;;19.71;100.00;100060.22;4974068;28;990;-65
2023/09/03 02:56:21;;;;;;;;;;;;;;;19.73;100.00;100060.56;4974044;28;923;-65
2023/09/03 02:58:49;;;;;;;;;;;;;;;19.73;100.00;100065.38;4974132;28;950;-65
2023/09/03 03:01:17;;;;;;;;;;;;;;;19.70;100.00;100064.28;4972600;28;1949;-66
2023/09/03 03:03:45;;;;;;;;;;;;;;;19.71;100.00;100056.66;4973927;28;861;-65
2023/09/03 03:06:12;;;;;;;;;;;;;;;19.79;100.00;100063.56;4973876;28;872;-64
2023/09/03 03:08:39;;;;;;;;;;;;;;;19.88;100.00;100060.78;4973876;28;1257;-64
2023/09/03 03:11:07;;;;;;;;;;;;;;;19.97;100.00;100060.03;4973772;28;891;-64
2023/09/03 03:13:34;;;;;;;;;;;;;;;20.04;100.00;100047.78;4973754;28;816;-65
2023/09/03 03:16:06;;;;;;;;;;;;;;;20.06;100.00;100048.88;4973899;28;852;-65
2023/09/03 03:18:35;;;;;;;;;;;;;;;20.04;100.00;100042.94;4973631;28;882;-64
2023/09/03 03:21:22;;;;;;;;;;;;;;;20.05;100.00;100046.50;4973847;28;1886;-64
2023/09/03 03:23:50;;;;;;;;;;;;;;;20.02;100.00;100045.41;4972193;28;1336;-65
2023/09/03 03:26:18;;;;;;;;;;;;;;;19.96;100.00;100050.06;5002675;28;1222;-66
2023/09/03 03:28:46;;;;;;;;;;;;;;;19.96;100.00;100053.66;5012645;28;874;-65
2023/09/03 03:31:16;;;;;;;;;;;;;;;19.89;100.00;100055.97;5012460;28;902;-65
2023/09/03 03:33:44;;;;;;;;;;;;;;;19.88;100.00;100054.41;4994796;28;1217;-65
2023/09/03 03:36:11;;;;;;;;;;;;;;;19.89;100.00;100053.94;5012411;28;898;-65
2023/09/03 03:38:38;;;;;;;;;;;;;;;19.91;100.00;100054.25;5012419;28;958;-65
2023/09/03 03:41:12;;;;;;;;;;;;;;;19.96;100.00;100050.06;5012212;28;1915;-65
2023/09/03 03:43:41;;;;;;;;;;;;;;;20.04;100.00;100047.78;5012432;28;875;-66
2023/09/03 03:46:09;;;;;;;;;;;;;;;20.11;100.00;100051.06;5012245;28;847;-65
2023/09/03 03:48:36;;;;;;;;;;;;;;;20.17;100.00;100054.03;5012273;28;836;-65
2023/09/03 03:51:03;;;;;;;;;;;;;;;20.22;100.00;100053.44;5012124;28;615;-66
2023/09/03 03:53:30;;;;;;;;;;;;;;;20.22;100.00;100053.44;5012145;28;832;-66
2023/09/03 03:56:04;;;;;;;;;;;;;;;20.24;100.00;100055.78;5012101;28;868;-66
2023/09/03 03:58:32;;;;;;;;;;;;;;;20.24;100.00;100055.78;5011772;28;826;-65
2023/09/03 04:01:00;;;;;;;;;;;;;;;20.26;100.00;100053.28;5012221;28;1939;-66
2023/09/03 04:03:28;;;;;;;;;;;;;;;20.30;100.00;100043.47;5012017;28;860;-66
2023/09/03 04:05:58;;;;;;;;;;;;;;;20.35;100.00;100042.84;5012111;28;895;-65
2023/09/03 04:08:26;;;;;;;;;;;;;;;20.39;100.00;100042.72;5011944;28;868;-65
2023/09/03 04:11:11;;;;;;;;;;;;;;;20.38;100.00;100027.91;4994359;28;1296;-65
2023/09/03 04:13:39;;;;;;;;;;;;;;;20.42;100.00;100033.38;5012075;28;816;-67
2023/09/03 04:16:08;;;;;;;;;;;;;;;20.48;100.00;100037.09;5012165;28;894;-65
2023/09/03 04:18:35;;;;;;;;;;;;;;;20.52;100.00;100037.75;5012196;28;903;-67
2023/09/03 04:21:02;;;;;;;;;;;;;;;20.58;100.00;100037.94;5011939;28;2020;-65
2023/09/03 04:23:29;;;;;;;;;;;;;;;20.73;100.00;100032.50;5011769;28;889;-65
2023/09/03 04:25:56;;;;;;;;;;;;;;;20.92;100.00;100038.91;4979616;28;1485;-66
2023/09/03 04:28:24;;;;;;;;;;;;;;;21.13;100.00;100040.75;4972847;28;844;-66
2023/09/03 04:30:54;;;;;;;;;;;;;;;21.22;100.00;100034.34;4973007;28;884;-66
2023/09/03 04:33:21;;;;;;;;;;;;;;;21.28;100.00;100026.84;4972884;28;864;-66
2023/09/03 04:35:58;;;;;;;;;;;;;;;21.34;100.00;100016.53;4972921;28;840;-67
2023/09/03 04:38:26;;;;;;;;;;;;;;;21.48;100.00;100022.78;4972823;28;833;-65
2023/09/03 04:40:54;;;;;;;;;;;;;;;21.58;100.00;100024.31;4972581;28;1969;-66
2023/09/03 04:43:22;;;;;;;;;;;;;;;21.69;100.00;100023.81;4972696;28;865;-66
2023/09/03 04:45:50;;;;;;;;;;;;;;;21.77;100.00;100027.84;4972632;28;853;-65
2023/09/03 04:48:17;;;;;;;;;;;;;;;21.88;100.00;100030.16;4972679;28;884;-65
2023/09/03 04:50:44;;;;;;;;;;;;;;;22.03;100.00;100026.16;4972540;28;948;-66
2023/09/03 04:53:13;;;;;;;;;;;;;;;22.15;100.00;100027.19;4972604;28;825;-67
2023/09/03 04:55:40;;;;;;;;;;;;;;;22.22;100.00;100026.88;4972624;28;891;-66
2023/09/03 04:58:07;;;;;;;;;;;;;;;22.28;100.00;100026.22;4971229;28;1217;-66
2023/09/03 05:00:35;;;;;;;;;;;;;;;22.38;100.00;100028.50;4972853;28;1882;-66
2023/09/03 05:03:04;;;;;;;;;;;;;;;22.45;100.00;100033.00;4972549;28;851;-66
2023/09/03 05:05:31;;;;;;;;;;;;;;;22.54;100.00;100024.47;4972430;28;872;-66
2023/09/03 05:07:58;;;;;;;;;;;;;;;22.69;100.00;100026.56;4972487;28;876;-67
2023/09/03 05:10:25;;;;;;;;;;;;;;;22.83;100.00;100026.63;4974077;28;859;-66
2023/09/03 05:12:52;;;;;;;;;;;;;;;23.08;100.00;100027.34;4975949;28;816;-67
2023/09/03 05:15:19;;;;;;;;;;;;;;;23.29;100.00;100028.25;4976027;28;963;-65
2023/09/03 05:17:46;;;;;;;;;;;;;;;23.41;100.00;100015.13;4975931;28;859;-68
2023/09/03 05:20:12;;;;;;;;;;;;;;;23.39;100.00;100015.63;4975607;28;1898;-66
2023/09/03 05:22:39;;;;;;;;;;;;;;;23.39;100.00;100009.22;4975843;28;840;-67
2023/09/03 05:25:06;;;;;;;;;;;;;;;23.43;100.00;100015.44;4984302;28;1213;-66
2023/09/03 05:27:33;;;;;;;;;;;;;;;23.49;100.00;100018.34;5014808;28;875;-66
2023/09/03 05:30:01;;;;;;;;;;;;;;;23.61;100.00;100015.22;5014679;28;883;-67
2023/09/03 05:32:28;;;;;;;;;;;;;;;23.78;100.00;100023.22;5014703;28;887;-66
2023/09/03 05:34:55;;;;;;;;;;;;;;;23.91;100.00;100031.34;5014709;28;881;-66
2023/09/03 05:37:23;;;;;;;;;;;;;;;24.02;100.00;100025.88;5014643;28;1060;-66
2023/09/03 05:39:51;;;;;;;;;;;;;;;24.13;100.00;100013.97;5014834;28;824;-66
2023/09/03 05:42:18;;;;;;;;;;;;;;;24.26;100.00;100020.06;5014388;28;1914;-67
2023/09/03 05:44:47;;;;;;;;;;;;;;;24.53;99.52;100021.72;5014480;28;875;-67
2023/09/03 05:47:18;;;;;;;;;;;;;;;24.82;96.58;100022.84;5014476;28;824;-66
2023/09/03 05:49:46;;;;;;;;;;;;;;;25.05;95.95;100018.22;5014199;28;817;-67
2023/09/03 05:52:13;;;;;;;;;;;;;;;25.19;93.79;100022.22;4996711;28;1306;-66
2023/09/03 05:54:39;;;;;;;;;;;;;;;25.22;91.13;100027.69;5014344;28;855;-66
2023/09/03 05:57:06;;;;;;;;;;;;;;;25.27;92.94;100024.13;5014137;28;862;-67
2023/09/03 05:59:33;;;;;;;;;;;;;;;25.66;90.83;100028.56;5014181;28;836;-67
2023/09/03 06:02:00;;;;;;;;;;;;;;;26.05;89.09;100025.28;5013939;28;1907;-67
2023/09/03 06:04:27;;;;;;;;;;;;;;;26.58;81.96;100031.53;5013971;28;830;-67
2023/09/03 06:06:55;;;;;;;;;;;;;;;27.08;74.01;100025.25;5013916;28;849;-67
2023/09/03 06:09:22;;;;;;;;;;;;;;;27.55;70.76;100033.34;5014024;28;804;-67
2023/09/03 06:11:49;;;;;;;;;;;;;;;27.82;67.86;100024.00;4996360;28;1375;-67
2023/09/03 06:14:16;;;;;;;;;;;;;;;27.94;66.65;100033.34;5013873;28;1279;-66
2023/09/03 06:16:43;;;;;;;;;;;;;;;27.98;65.58;100033.09;5013906;28;1183;-68
2023/09/03 06:19:10;;;;;;;;;;;;;;;27.93;66.26;100048.03;5013659;28;1302;-67
2023/09/03 06:21:37;;;;;;;;;;;;;;;27.81;66.25;100041.59;5013703;28;1890;-68
2023/09/03 06:24:04;;;;;;;;;;;;;;;27.60;65.98;100036.16;5013879;28;917;-67
2023/09/03 06:26:31;;;;;;;;;;;;;;;27.50;66.84;100034.88;5013556;28;1443;-68
2023/09/03 06:28:59;;;;;;;;;;;;;;;27.13;67.75;100043.56;5013809;28;1231;-69
2023/09/03 06:31:26;;;;;;;;;;;;;;;26.72;70.32;100050.41;5013659;28;1230;-67
2023/09/03 06:33:53;;;;;;;;;;;;;;;26.42;70.49;100053.59;5013647;28;1010;-68
2023/09/03 06:36:20;;;;;;;;;;;;;;;26.19;71.96;100046.25;5013740;28;824;-68
2023/09/03 06:38:47;;;;;;;;;;;;;;;26.12;71.75;100049.53;5013575;28;859;-67
2023/09/03 06:41:15;;;;;;;;;;;;;;;26.10;72.13;100047.22;5013545;28;2008;-67
2023/09/03 06:43:42;;;;;;;;;;;;;;;26.13;71.84;100046.19;5013692;28;911;-67
2023/09/03 06:46:09;;;;;;;;;;;;;;;26.24;71.41;100049.13;5013400;28;914;-67
2023/09/03 06:48:37;;;;;;;;;;;;;;;26.43;70.56;100052.28;5013567;28;872;-68
2023/09/03 06:51:06;;;;;;;;;;;;;;;26.77;69.75;100051.69;5013213;28;836;-67
2023/09/03 06:53:32;;;;;;;;;;;;;;;27.17;66.91;100055.44;5013119;28;829;-67
2023/09/03 06:55:59;;;;;;;;;;;;;;;27.57;66.53;100042.09;5013104;28;875;-68
2023/09/03 06:58:26;;;;;;;;;;;;;;;28.04;64.44;100042.38;5013084;28;830;-68
2023/09/03 07:00:52;;;;;;;;;;;;;;;27.92;59.70;100052.97;5013225;28;1957;-67
2023/09/03 07:03:19;;;;;;;;;;;;;;;27.76;58.77;100062.22;5012995;28;851;-66
2023/09/03 07:05:46;;;;;;;;;;;;;;;27.88;57.90;100064.56;5012951;28;894;-67
2023/09/03 07:08:13;;;;;;;;;;;;;;;28.43;58.44;100059.31;5012851;28;818;-67
2023/09/03 07:10:40;;;;;;;;;;;;;;;29.28;55.98;100056.91;5012835;28;858;-67
2023/09/03 07:13:08;;;;;;;;;;;;;;;29.14;52.86;100065.78;5012846;28;959;-68
2023/09/03 07:15:36;;;;;;;;;;;;;;;28.98;52.25;100073.88;5013031;28;855;-66
2023/09/03 07:18:03;;;;;;;;;;;;;;;29.02;52.13;100076.44;5012661;28;835;-67
2023/09/03 07:20:30;;;;;;;;;;;;;;;29.17;52.65;100076.13;5012561;28;1959;-67
2023/09/03 07:22:57;;;;;;;;;;;;;;;29.44;52.68;100077.25;5012790;28;938;-68
2023/09/03 07:25:25;;;;;;;;;;;;;;;29.62;51.97;100070.16;5012622;28;1276;-69
2023/09/03 07:27:52;;;;;;;;;;;;;;;29.24;51.05;100070.66;5012601;28;903;-68
2023/09/03 07:30:19;;;;;;;;;;;;;;;29.15;52.73;100073.81;5012547;28;881;-67
2023/09/03 07:32:46;;;;;;;;;;;;;;;29.31;52.30;100069.31;5011820;28;876;-68
2023/09/03 07:35:14;;;;;;;;;;;;;;;29.40;51.57;100068.22;5012486;28;848;-67
2023/09/03 07:37:43;;;;;;;;;;;;;;;29.35;52.39;100072.66;5012284;28;845;-68
2023/09/03 07:40:10;;;;;;;;;;;;;;;29.29;53.09;100066.97;5012718;28;824;-68
2023/09/03 07:42:38;;;;;;;;;;;;;;;29.27;52.44;100066.75;5012271;28;2029;-68
2023/09/03 07:45:05;;;;;;;;;;;;;;;29.35;51.65;100072.66;5012285;28;887;-69
2023/09/03 07:47:33;;;;;;;;;;;;;;;29.45;47.69;100076.72;4994532;28;1479;-68
2023/09/03 07:50:01;;;;;;;;;;;;;;;29.49;45.01;100074.38;5012239;28;884;-67
2023/09/03 07:52:28;;;;;;;;;;;;;;;29.61;43.49;100077.13;5012190;28;915;-68
2023/09/03 07:54:55;;;;;;;;;;;;;;;29.65;43.57;100069.84;5012418;28;888;-67
2023/09/03 07:57:22;;;;;;;;;;;;;;;29.77;42.77;100070.56;5012237;28;883;-67
2023/09/03 07:59:51;;;;;;;;;;;;;;;30.08;41.91;100066.38;5011970;28;832;-67
2023/09/03 08:02:20;;;;;;;;;;;;;;;30.49;42.29;100070.38;5011958;28;1982;-68
2023/09/03 08:04:47;;;;;;;;;;;;;;;30.71;40.28;100070.13;5011971;28;888;-68
2023/09/03 08:07:14;;;;;;;;;;;;;;;30.99;39.02;100076.81;5012038;28;912;-68
2023/09/03 08:09:41;;;;;;;;;;;;;;;31.08;37.21;100076.44;5012267;28;871;-66
2023/09/03 08:12:08;;;;;;;;;;;;;;;31.36;36.20;100076.03;5012005;28;895;-69
2023/09/03 08:14:37;;;;;;;;;;;;;;;31.10;35.38;100070.94;5011941;28;855;-70
2023/09/03 08:17:03;;;;;;;;;;;;;;;31.31;35.58;100062.63;5011838;28;934;-69
2023/09/03 08:19:30;;;;;;;;;;;;;;;31.43;34.07;100068.94;5011997;28;847;-68
2023/09/03 08:21:57;;;;;;;;;;;;;;;31.80;34.60;100073.81;5012065;28;1891;-67
2023/09/03 08:24:26;;;;;;;;;;;;;;;32.11;33.32;100060.03;5012072;28;932;-67
2023/09/03 08:26:52;;;;;;;;;;;;;;;32.54;32.59;100050.41;4994055;28;1587;-69
2023/09/03 08:29:19;;;;;;;;;;;;;;;32.11;32.43;100055.09;5011805;28;844;-69
2023/09/03 08:31:45;;;;;;;;;;;;;;;31.58;32.93;100059.88;5011794;28;887;-70
2023/09/03 08:37:32;;;;;;;;;;;;;;;31.48;33.80;100057.44;5009129;28;658;-66
2023/09/03 08:39:59;;;;;;;;;;;;;;;31.90;32.21;100051.28;4992207;28;864;-68
2023/09/03 08:42:26;;;;;;;;;;;;;;;32.11;32.37;100048.59;4992049;28;1965;-70
2023/09/03 08:44:58;;;;;;;;;;;;;;;32.29;32.19;100050.59;4994528;28;993;-69
2023/09/03 08:47:25;;;;;;;;;;;;;;;32.35;32.04;100050.50;4995850;28;816;-68
2023/09/03 08:49:53;;;;;;;;;;;;;;;31.95;32.00;100050.44;4995813;28;820;-68
2023/09/03 08:52:21;;;;;;;;;;;;;;;31.95;33.35;100054.06;4995824;28;875;-68
2023/09/03 08:54:48;;;;;;;;;;;;;;;32.32;32.64;100035.19;4996093;28;828;-67
2023/09/03 08:57:14;;;;;;;;;;;;;;;32.81;31.44;100033.19;4995827;28;879;-69
2023/09/03 08:59:41;;;;;;;;;;;;;;;32.62;32.19;100031.22;4995761;28;848;-69
2023/09/03 09:02:11;;;;;;;;;;;;;;;32.49;30.63;100037.72;4995656;28;1952;-68
2023/09/03 09:04:39;;;;;;;;;;;;;;;32.21;31.70;100040.38;4995532;28;844;-67
2023/09/03 09:07:06;;;;;;;;;;;;;;;32.24;31.08;100039.25;4995617;28;895;-67
2023/09/03 09:09:34;;;;;;;;;;;;;;;32.24;31.19;100033.53;4995427;28;875;-66
2023/09/03 09:12:05;;;;;;;;;;;;;;;32.22;31.38;100030.47;4995466;28;879;-67
2023/09/03 09:14:41;;;;;;;;;;;;;;;32.48;31.15;100024.75;4995681;28;825;-67
2023/09/03 09:17:14;;;;;;;;;;;;;;;32.64;31.75;100024.97;4995547;28;836;-67
2023/09/03 09:19:41;;;;;;;;;;;;;;;32.89;31.14;100023.38;4995294;28;903;-65
2023/09/03 09:22:08;;;;;;;;;;;;;;;32.96;31.42;100016.19;4995172;28;1890;-66
2023/09/03 09:24:52;;;;;;;;;;;;;;;32.89;31.00;100019.75;4995207;28;1224;-67
2023/09/03 09:27:19;;;;;;;;;;;;;;;32.94;30.82;100018.84;4993940;28;1401;-66
2023/09/03 09:29:46;;;;;;;;;;;;;;;32.99;30.09;100009.38;4977743;28;1457;-64
2023/09/03 09:32:23;;;;;;;;;;;;;;;32.86;30.08;100013.06;4995052;28;817;-66
2023/09/03 09:34:50;;;;;;;;;;;;;;;32.63;30.50;100012.75;4995231;28;1278;-67
2023/09/03 09:37:17;;;;;;;;;;;;;;;32.41;30.71;100011.13;4995229;28;824;-65
2023/09/03 09:39:44;;;;;;;;;;;;;;;32.38;30.58;100014.31;4995101;28;839;-67
2023/09/03 09:42:13;;;;;;;;;;;;;;;31.68;31.13;100012.44;4995015;28;1911;-67
2023/09/03 09:44:57;;;;;;;;;;;;;;;31.44;31.24;100011.28;4994959;28;935;-69
2023/09/03 09:47:23;;;;;;;;;;;;;;;31.64;31.90;100006.28;4994762;28;856;-66
2023/09/03 09:49:51;;;;;;;;;;;;;;;31.92;30.04;100003.72;4994730;28;852;-66
2023/09/03 09:52:19;;;;;;;;;;;;;;;31.91;30.56;100007.88;4994744;28;868;-65
2023/09/03 09:54:46;;;;;;;;;;;;;;;31.98;31.02;100000.75;4994655;28;1280;-67
2023/09/03 09:57:15;;;;;;;;;;;;;;;32.38;30.63;99997.91;4994055;28;1223;-65
2023/09/03 09:59:50;;;;;;;;;;;;;;;32.51;29.54;99997.13;4994973;28;820;-65
2023/09/03 10:02:17;;;;;;;;;;;;;;;32.67;29.39;99990.31;4994539;28;1890;-66
2023/09/03 10:04:44;;;;;;;;;;;;;;;32.88;29.56;99986.72;4994514;28;904;-65
2023/09/03 10:07:10;;;;;;;;;;;;;;;33.21;28.87;99984.44;4994449;28;860;-66
2023/09/03 10:09:39;;;;;;;;;;;;;;;33.41;28.08;99989.38;4994336;28;896;-66
2023/09/03 10:12:07;;;;;;;;;;;;;;;33.07;28.60;99977.97;4994348;28;801;-65
2023/09/03 10:14:35;;;;;;;;;;;;;;;33.32;28.36;99969.84;4994350;28;970;-67
2023/09/03 10:17:03;;;;;;;;;;;;;;;33.31;28.99;99968.31;4994082;28;864;-65
2023/09/03 10:19:43;;;;;;;;;;;;;;;33.38;29.40;99963.97;4994334;28;876;-67
2023/09/03 10:22:13;;;;;;;;;;;;;;;32.28;30.02;99960.41;4976743;28;1965;-68
2023/09/03 10:24:41;;;;;;;;;;;;;;;31.12;31.95;99969.19;4994009;28;1386;-66
2023/09/03 10:27:12;;;;;;;;;;;;;;;30.62;32.92;99955.63;4994245;28;932;-67
2023/09/03 10:29:40;;;;;;;;;;;;;;;30.69;33.13;99955.78;4994021;28;852;-67
2023/09/03 10:32:08;;;;;;;;;;;;;;;30.68;33.14;99957.13;4993981;28;813;-66
2023/09/03 10:34:38;;;;;;;;;;;;;;;31.04;32.82;99956.09;4993934;28;951;-66
2023/09/03 10:37:09;;;;;;;;;;;;;;;31.07;33.51;99955.78;4993899;28;895;-65
2023/09/03 10:39:37;;;;;;;;;;;;;;;30.91;33.72;99942.53;4993999;28;812;-65
2023/09/03 10:42:17;;;;;;;;;;;;;;;30.47;34.09;99953.25;4993957;28;1983;-66
2023/09/03 10:44:54;;;;;;;;;;;;;;;30.08;34.87;99948.78;4993634;28;873;-66
2023/09/03 10:47:21;;;;;;;;;;;;;;;30.25;34.65;99949.34;4993902;28;820;-65
2023/09/03 10:49:51;;;;;;;;;;;;;;;31.07;33.22;99943.63;4976239;28;861;-65
2023/09/03 10:52:31;;;;;;;;;;;;;;;32.30;30.98;99934.13;4993584;28;910;-66
2023/09/03 10:55:11;;;;;;;;;;;;;;;33.58;30.36;99920.19;4993676;28;1233;-66
2023/09/03 10:57:38;;;;;;;;;;;;;;;34.28;28.82;99930.78;4993484;28;853;-66
2023/09/03 11:00:05;;;;;;;;;;;;;;;33.94;29.17;99914.53;4993419;28;996;-67
2023/09/03 11:02:33;;;;;;;;;;;;;;;33.63;29.43;99912.81;4993563;28;1890;-67
2023/09/03 11:05:19;;;;;;;;;;;;;;;32.86;30.34;99918.59;4993288;28;876;-66
2023/09/03 11:07:45;;;;;;;;;;;;;;;32.36;30.45;99909.03;4992367;28;842;-65
2023/09/03 11:10:35;;;;;;;;;;;;;;;32.22;30.89;99907.50;4993369;28;820;-66
2023/09/03 11:13:04;;;;;;;;;;;;;;;32.26;31.30;99902.22;4983698;28;1250;-68
2023/09/03 11:15:31;;;;;;;;;;;;;;;31.83;31.29;99909.06;4993191;28;874;-67
2023/09/03 11:17:59;;;;;;;;;;;;;;;32.40;30.34;99909.47;4993148;28;860;-66
2023/09/03 11:20:30;;;;;;;;;;;;;;;32.57;30.19;99905.50;4993239;28;2362;-66
2023/09/03 11:22:58;;;;;;;;;;;;;;;33.24;29.43;99903.13;4992996;28;837;-66
2023/09/03 11:25:34;;;;;;;;;;;;;;;33.29;28.72;99893.63;4993096;28;1229;-65
2023/09/03 11:28:02;;;;;;;;;;;;;;;32.48;29.54;99895.28;4993012;28;812;-66
2023/09/03 11:30:29;;;;;;;;;;;;;;;31.79;29.97;99905.75;4992994;28;856;-69
2023/09/03 11:32:56;;;;;;;;;;;;;;;31.54;30.05;99900.28;4992884;28;829;-67
2023/09/03 11:35:23;;;;;;;;;;;;;;;31.85;29.98;99898.63;4992868;28;821;-67
2023/09/03 11:37:49;;;;;;;;;;;;;;;32.72;29.42;99894.97;4992737;28;833;-67
2023/09/03 11:40:16;;;;;;;;;;;;;;;33.73;28.63;99893.78;4993108;28;809;-67
2023/09/03 11:42:43;;;;;;;;;;;;;;;33.99;28.26;99892.00;4992531;28;1971;-67
2023/09/03 11:45:11;;;;;;;;;;;;;;;33.75;28.14;99893.97;4992861;28;828;-67
2023/09/03 11:47:47;;;;;;;;;;;;;;;33.29;28.84;99885.03;4992455;28;967;-66
2023/09/03 11:50:16;;;;;;;;;;;;;;;32.54;29.47;99890.22;4975239;28;1369;-65
2023/09/03 11:52:49;;;;;;;;;;;;;;;32.08;30.43;99886.78;4993006;28;1129;-66
2023/09/03 11:55:16;;;;;;;;;;;;;;;31.98;30.85;99888.50;4992532;28;949;-66
2023/09/03 11:57:46;;;;;;;;;;;;;;;31.93;30.49;99882.34;4992605;28;861;-66
2023/09/03 12:00:13;;;;;;;;;;;;;;;31.64;30.77;99883.44;4992459;28;832;-66
2023/09/03 12:02:40;;;;;;;;;;;;;;;31.47;31.05;99880.91;4992498;28;1949;-66
2023/09/03 12:05:07;;;;;;;;;;;;;;;31.43;31.19;99881.25;4992377;28;848;-66
2023/09/03 12:07:33;;;;;;;;;;;;;;;31.59;30.79;99884.34;4992489;28;907;-66
2023/09/03 12:10:00;;;;;;;;;;;;;;;31.73;31.12;99871.59;4992472;28;833;-65
2023/09/03 12:12:27;;;;;;;;;;;;;;;31.83;31.54;99875.53;4992417;28;866;-66
2023/09/03 12:14:54;;;;;;;;;;;;;;;31.59;30.56;99872.91;4992201;28;877;-65
2023/09/03 12:17:26;;;;;;;;;;;;;;;31.32;31.50;99865.06;4992435;28;891;-66
2023/09/03 12:19:52;;;;;;;;;;;;;;;31.12;31.54;99866.44;4994868;28;915;-66
2023/09/03 12:22:19;;;;;;;;;;;;;;;31.30;31.22;99862.00;4996255;28;1951;-66
2023/09/03 12:24:46;;;;;;;;;;;;;;;31.51;31.24;99867.06;4996229;28;1061;-65
2023/09/03 12:27:12;;;;;;;;;;;;;;;31.72;31.21;99861.47;4996327;28;852;-66
2023/09/03 12:29:40;;;;;;;;;;;;;;;31.98;31.24;99852.13;4996247;28;856;-66
2023/09/03 12:32:08;;;;;;;;;;;;;;;32.12;31.19;99855.75;4996128;28;867;-66
2023/09/03 12:34:35;;;;;;;;;;;;;;;32.21;30.88;99846.72;4996224;28;919;-66
2023/09/03 12:37:02;;;;;;;;;;;;;;;32.20;30.27;99848.06;4996110;28;879;-66
2023/09/03 12:39:30;;;;;;;;;;;;;;;32.44;29.78;99849.06;4978711;28;1305;-65
2023/09/03 12:41:58;;;;;;;;;;;;;;;32.70;29.37;99842.50;4996088;28;1954;-66
2023/09/03 12:44:33;;;;;;;;;;;;;;;32.88;29.23;99837.88;4995974;28;938;-67
2023/09/03 12:47:01;;;;;;;;;;;;;;;33.04;29.37;99839.56;4978551;28;1336;-67
2023/09/03 12:49:28;;;;;;;;;;;;;;;33.35;29.08;99831.22;4995922;28;920;-67
2023/09/03 12:51:55;;;;;;;;;;;;;;;33.04;29.39;99839.56;4995853;28;852;-66
2023/09/03 12:54:23;;;;;;;;;;;;;;;32.38;31.20;99831.28;4995809;28;1024;-66
2023/09/03 12:56:53;;;;;;;;;;;;;;;31.54;35.62;99835.34;4995818;28;920;-63
2023/09/03 12:59:20;;;;;;;;;;;;;;;30.91;38.53;99831.25;4996038;28;849;-66
2023/09/03 13:01:47;;;;;;;;;;;;;;;30.46;40.75;99831.97;4995567;28;1890;-63
2023/09/03 13:04:14;;;;;;;;;;;;;;;30.50;41.27;99823.84;4995651;28;868;-65
2023/09/03 13:06:41;;;;;;;;;;;;;;;31.69;39.19;99808.31;4995642;28;846;-66
2023/09/03 13:09:10;;;;;;;;;;;;;;;31.78;38.13;99810.72;4995513;28;852;-67
2023/09/03 13:11:37;;;;;;;;;;;;;;;32.07;38.33;99813.75;4995464;28;887;-65
2023/09/03 13:14:05;;;;;;;;;;;;;;;32.48;37.51;99820.91;4995250;28;857;-65
2023/09/03 13:16:32;;;;;;;;;;;;;;;32.91;37.02;99814.66;4995312;28;912;-64
2023/09/03 13:19:00;;;;;;;;;;;;;;;33.65;35.69;99812.72;4995289;28;976;-64
2023/09/03 13:21:27;;;;;;;;;;;;;;;33.83;35.13;99811.66;4995214;28;1895;-65
2023/09/03 13:23:54;;;;;;;;;;;;;;;33.52;35.54;99811.50;4995273;28;932;-65
2023/09/03 13:26:22;;;;;;;;;;;;;;;32.85;36.00;99821.84;4994922;28;1279;-68
2023/09/03 13:28:49;;;;;;;;;;;;;;;32.20;37.85;99816.59;4995144;28;911;-68
2023/09/03 13:31:21;;;;;;;;;;;;;;;31.83;38.52;99814.78;4993924;28;935;-64